createdAt,value
2023-01-17T00:04:12.171Z,4.50
2023-01-17T00:08:37.203Z,4.40
2023-01-17T00:12:52.272Z,4.50
2023-01-17T00:17:01.996Z,4.50
2023-01-17T00:21:14.926Z,4.50
2023-01-17T00:25:47.589Z,4.50
2023-01-17T00:29:55.459Z,4.50
2023-01-17T00:34:03.328Z,4.50
2023-01-17T00:38:14.242Z,4.40
2023-01-17T00:42:22.275Z,4.40
2023-01-17T00:46:48.774Z,4.40
2023-01-17T00:51:15.372Z,4.20
2023-01-17T00:55:41.899Z,4.00
2023-01-17T01:00:08.676Z,3.80
2023-01-17T01:04:35.639Z,3.70
2023-01-17T01:09:02.390Z,3.70
2023-01-17T01:13:28.937Z,3.80
2023-01-17T01:17:55.126Z,3.80
2023-01-17T01:22:21.597Z,4.00
2023-01-17T01:26:48.172Z,4.00
2023-01-17T01:31:14.790Z,4.10
2023-01-17T01:35:24.082Z,4.10
2023-01-17T01:39:32.669Z,4.10
2023-01-17T01:43:52.999Z,4.20
2023-01-17T01:48:07.468Z,4.10
2023-01-17T01:52:18.693Z,4.00
2023-01-17T01:56:28.180Z,4.00
2023-01-17T02:00:39.003Z,4.00
2023-01-17T02:04:47.767Z,3.70
2023-01-17T02:08:59.104Z,2.90
2023-01-17T02:13:09.337Z,2.50
2023-01-17T02:17:29.639Z,2.30
2023-01-17T02:21:50.128Z,2.20
2023-01-17T02:26:01.886Z,2.10
2023-01-17T02:30:19.844Z,2.10
2023-01-17T02:34:43.413Z,2.10
2023-01-17T02:39:12.848Z,2.10
2023-01-17T02:43:22.923Z,2.30
2023-01-17T02:47:33.156Z,2.20
2023-01-17T02:51:47.413Z,2.40
2023-01-17T02:55:59.033Z,2.50
2023-01-17T03:00:19.523Z,2.60
2023-01-17T03:04:43.312Z,2.70
2023-01-17T03:08:52.706Z,2.70
2023-01-17T03:13:03.186Z,2.70
2023-01-17T03:17:11.801Z,2.70
2023-01-17T03:21:21.094Z,2.80
2023-01-17T03:25:29.588Z,2.90
2023-01-17T03:29:39.533Z,2.90
2023-01-17T03:34:07.414Z,2.80
2023-01-17T03:38:16.296Z,2.90
2023-01-17T03:42:44.179Z,2.90
2023-01-17T03:47:12.278Z,3.00
2023-01-17T03:51:21.405Z,2.90
2023-01-17T03:55:30.129Z,2.90
2023-01-17T03:59:38.768Z,3.00
2023-01-17T04:03:47.343Z,2.90
2023-01-17T04:08:08.803Z,2.90
2023-01-17T04:12:17.453Z,3.00
2023-01-17T04:16:29.209Z,2.90
2023-01-17T04:20:39.959Z,3.00
2023-01-17T04:24:48.526Z,3.00
2023-01-17T04:28:57.079Z,3.00
2023-01-17T04:33:05.951Z,3.00
2023-01-17T04:37:33.896Z,3.00
2023-01-17T04:41:43.877Z,2.90
2023-01-17T04:45:57.241Z,2.90
2023-01-17T04:50:05.958Z,2.90
2023-01-17T04:54:14.561Z,2.90
2023-01-17T04:58:23.080Z,2.80
2023-01-17T05:02:31.637Z,2.80
2023-01-17T05:06:40.205Z,2.70
2023-01-17T05:10:48.864Z,2.70
2023-01-17T05:14:57.564Z,2.60
2023-01-17T05:19:06.182Z,2.50
2023-01-17T05:23:14.717Z,2.40
2023-01-17T05:27:23.385Z,2.40
2023-01-17T05:31:31.932Z,2.50
2023-01-17T05:35:59.889Z,2.50
2023-01-17T05:40:29.108Z,2.50
2023-01-17T05:44:38.663Z,2.50
2023-01-17T05:48:47.133Z,2.50
2023-01-17T05:52:58.440Z,2.50
2023-01-17T05:57:06.987Z,2.50
2023-01-17T06:01:15.814Z,2.50
2023-01-17T06:05:25.896Z,2.60
2023-01-17T06:09:34.517Z,2.50
2023-01-17T06:13:43.048Z,2.50
2023-01-17T06:17:51.777Z,2.50
2023-01-17T06:22:00.408Z,2.50
2023-01-17T06:26:10.234Z,2.50
2023-01-17T06:30:18.868Z,2.60
2023-01-17T06:34:27.895Z,2.60
2023-01-17T06:38:36.433Z,2.60
2023-01-17T06:42:45.284Z,2.50
2023-01-17T06:46:54.427Z,2.40
2023-01-17T06:51:05.829Z,2.50
2023-01-17T06:55:14.380Z,2.50
2023-01-17T06:59:25.740Z,2.50
2023-01-17T07:03:34.415Z,2.50
2023-01-17T07:07:42.909Z,2.60
2023-01-17T07:11:52.643Z,2.50
2023-01-17T07:16:05.479Z,2.50
2023-01-17T07:20:14.120Z,2.60
2023-01-17T07:24:23.056Z,2.60
2023-01-17T07:28:31.675Z,2.60
2023-01-17T07:32:40.508Z,2.50
2023-01-17T07:37:08.603Z,2.50
2023-01-17T07:41:17.235Z,2.50
2023-01-17T07:45:26.080Z,2.60
2023-01-17T07:49:34.680Z,2.50
2023-01-17T07:53:43.230Z,2.50
2023-01-17T07:57:51.938Z,2.50
2023-01-17T08:02:00.861Z,2.50
2023-01-17T08:06:29.284Z,2.40
2023-01-17T08:10:37.926Z,2.40
2023-01-17T08:14:46.628Z,2.40
2023-01-17T08:18:56.282Z,2.40
2023-01-17T08:23:04.841Z,2.40
2023-01-17T08:27:13.430Z,2.40
2023-01-17T08:31:22.177Z,2.40
2023-01-17T08:35:31.143Z,2.30
2023-01-17T08:39:39.826Z,2.30
2023-01-17T08:44:07.810Z,2.30
2023-01-17T08:48:16.746Z,2.30
2023-01-17T08:52:25.475Z,2.40
2023-01-17T08:56:34.106Z,2.40
2023-01-17T09:00:42.771Z,2.50
2023-01-17T09:04:52.521Z,2.60
2023-01-17T09:09:01.949Z,2.60
2023-01-17T09:13:29.921Z,2.50
2023-01-17T09:17:38.547Z,2.60
2023-01-17T09:21:47.177Z,2.50
2023-01-17T09:26:03.147Z,2.50
2023-01-17T09:30:12.675Z,2.60
2023-01-17T09:34:21.353Z,2.60
2023-01-17T09:38:29.987Z,2.70
2023-01-17T09:43:03.720Z,2.70
2023-01-17T09:47:39.367Z,2.80
2023-01-17T09:51:47.943Z,2.90
2023-01-17T09:56:05.448Z,2.90
2023-01-17T10:00:17.107Z,2.90
2023-01-17T10:04:44.879Z,2.90
2023-01-17T10:09:03.782Z,2.90
2023-01-17T10:13:18.457Z,3.20
2023-01-17T10:17:57.076Z,3.10
2023-01-17T10:22:29.893Z,3.10
2023-01-17T10:26:39.423Z,3.20
2023-01-17T10:30:50.698Z,3.20
2023-01-17T10:35:02.417Z,3.10
2023-01-17T10:39:22.531Z,3.10
2023-01-17T10:44:09.241Z,3.20
2023-01-17T10:48:39.074Z,3.20
2023-01-17T10:52:53.735Z,3.30
2023-01-17T10:57:02.607Z,3.20
2023-01-17T11:01:17.228Z,3.20
2023-01-17T11:05:29.248Z,3.30
2023-01-17T11:09:44.591Z,3.30
2023-01-17T11:13:55.587Z,3.40
2023-01-17T11:18:07.823Z,3.50
2023-01-17T11:22:16.941Z,3.50
2023-01-17T11:26:28.748Z,3.50
2023-01-17T11:30:37.302Z,3.60
2023-01-17T11:34:47.395Z,3.60
2023-01-17T11:39:06.985Z,3.70
2023-01-17T11:43:31.820Z,3.70
2023-01-17T11:47:40.490Z,3.70
2023-01-17T11:52:12.457Z,3.80
2023-01-17T11:56:35.839Z,3.80
2023-01-17T12:00:48.358Z,3.80
2023-01-17T12:05:17.352Z,3.90
2023-01-17T12:10:05.108Z,3.90
2023-01-17T12:14:25.918Z,3.90
2023-01-17T12:18:46.428Z,4.00
2023-01-17T12:23:14.164Z,4.00
2023-01-17T12:27:28.978Z,4.10
2023-01-17T12:31:46.416Z,4.20
2023-01-17T12:36:07.103Z,4.40
2023-01-17T12:40:24.893Z,4.40
2023-01-17T12:44:59.199Z,4.60
2023-01-17T12:50:04.408Z,4.60
2023-01-17T12:54:34.275Z,4.50
2023-01-17T12:58:45.907Z,4.50
2023-01-17T13:03:00.036Z,4.50
2023-01-17T13:07:27.329Z,4.80
2023-01-17T13:11:59.479Z,4.70
2023-01-17T13:16:14.283Z,4.50
2023-01-17T13:20:49.842Z,4.40
2023-01-17T13:25:01.576Z,4.40
2023-01-17T13:29:40.760Z,4.30
2023-01-17T13:34:27.276Z,4.30
2023-01-17T13:38:57.626Z,4.20
2023-01-17T13:43:08.995Z,4.20
2023-01-17T13:47:24.598Z,4.20
2023-01-17T13:51:54.013Z,4.10
2023-01-17T13:56:24.736Z,4.20
2023-01-17T14:00:49.253Z,4.20
2023-01-17T14:05:14.787Z,4.20
2023-01-17T14:09:29.171Z,4.20
2023-01-17T14:13:39.983Z,4.10
2023-01-17T14:17:55.992Z,4.00
2023-01-17T14:22:23.096Z,4.00
2023-01-17T14:26:41.346Z,4.00
2023-01-17T14:30:54.283Z,4.00
2023-01-17T14:35:03.576Z,4.00
2023-01-17T14:39:24.643Z,4.00
2023-01-17T14:43:36.033Z,4.00
2023-01-17T14:47:46.034Z,4.00
2023-01-17T14:52:02.270Z,4.00
2023-01-17T14:56:18.410Z,4.00
2023-01-17T15:00:29.258Z,4.00
2023-01-17T15:04:39.458Z,3.90
2023-01-17T15:08:49.561Z,3.90
2023-01-17T15:13:00.545Z,3.80
2023-01-17T15:17:33.060Z,3.80
2023-01-17T15:21:43.782Z,3.90
2023-01-17T15:25:54.467Z,3.80
2023-01-17T15:30:04.273Z,3.80
2023-01-17T15:34:25.118Z,3.80
2023-01-17T15:38:39.067Z,3.80
2023-01-17T15:42:47.595Z,3.70
2023-01-17T15:46:56.227Z,3.60
2023-01-17T15:51:05.064Z,3.50
2023-01-17T15:55:15.157Z,3.50
2023-01-17T15:59:29.848Z,3.50
2023-01-17T16:03:58.625Z,3.40
2023-01-17T16:08:10.307Z,3.30
2023-01-17T16:12:38.211Z,3.30
2023-01-17T16:16:52.210Z,3.20
2023-01-17T16:21:03.059Z,3.20
2023-01-17T16:25:20.265Z,3.20
2023-01-17T16:29:28.839Z,3.10
2023-01-17T16:33:38.146Z,3.10
2023-01-17T16:37:52.098Z,3.00
2023-01-17T16:42:02.623Z,3.00
2023-01-17T16:46:12.660Z,2.90
2023-01-17T16:50:24.371Z,2.80
2023-01-17T16:54:32.993Z,2.80
2023-01-17T16:58:42.017Z,2.80
2023-01-17T17:02:54.109Z,2.80
2023-01-17T17:07:02.706Z,2.70
2023-01-17T17:11:14.198Z,2.70
2023-01-17T17:15:22.930Z,2.60
2023-01-17T17:19:31.471Z,2.50
2023-01-17T17:23:40.199Z,2.50
2023-01-17T17:27:48.758Z,2.40
2023-01-17T17:31:57.342Z,2.40
2023-01-17T17:36:07.938Z,2.40
2023-01-17T17:40:16.996Z,2.30
2023-01-17T17:44:25.788Z,2.20
2023-01-17T17:48:34.629Z,2.20
2023-01-17T17:52:44.212Z,2.10
2023-01-17T17:56:53.958Z,2.10
2023-01-17T18:01:06.892Z,2.10
2023-01-17T18:05:15.838Z,2.20
2023-01-17T18:09:24.562Z,2.20
2023-01-17T18:13:34.617Z,2.10
2023-01-17T18:17:43.322Z,1.90
2023-01-17T18:21:52.020Z,1.80
2023-01-17T18:26:00.578Z,1.80
2023-01-17T18:30:11.902Z,1.90
2023-01-17T18:34:24.043Z,1.90
2023-01-17T18:38:40.594Z,1.80
2023-01-17T18:42:50.035Z,1.80
2023-01-17T18:47:00.365Z,1.90
2023-01-17T18:51:11.739Z,1.90
2023-01-17T18:55:20.294Z,1.90
2023-01-17T18:59:28.958Z,1.80
2023-01-17T19:03:38.198Z,1.70
2023-01-17T19:07:46.826Z,1.80
2023-01-17T19:11:57.016Z,1.80
2023-01-17T19:16:08.429Z,1.60
2023-01-17T19:20:17.425Z,1.40
2023-01-17T19:24:26.671Z,1.40
2023-01-17T19:28:37.139Z,1.40
2023-01-17T19:32:46.178Z,1.40
2023-01-17T19:36:56.342Z,1.50
2023-01-17T19:41:10.402Z,1.60
2023-01-17T19:45:38.401Z,1.60
2023-01-17T19:49:48.775Z,1.50
2023-01-17T19:54:01.930Z,1.40
2023-01-17T19:58:12.530Z,1.30
2023-01-17T20:02:21.451Z,1.20
2023-01-17T20:06:42.085Z,1.20
2023-01-17T20:10:50.734Z,1.20
2023-01-17T20:14:59.262Z,1.20
2023-01-17T20:19:08.301Z,1.20
2023-01-17T20:23:16.927Z,1.30
2023-01-17T20:27:27.134Z,1.30
2023-01-17T20:31:55.213Z,1.20
2023-01-17T20:36:10.495Z,1.20
2023-01-17T20:40:17.490Z,1.20
2023-01-17T20:44:26.147Z,1.10
2023-01-17T20:48:34.793Z,1.00
2023-01-17T20:52:43.438Z,1.00
2023-01-17T20:56:52.068Z,1.10
2023-01-17T21:01:21.362Z,1.00
2023-01-17T21:05:30.118Z,1.00
2023-01-17T21:09:38.740Z,0.90
2023-01-17T21:13:49.577Z,0.90
2023-01-17T21:17:58.298Z,1.00
2023-01-17T21:22:06.986Z,1.00
2023-01-17T21:26:18.275Z,0.90
2023-01-17T21:30:26.901Z,0.90
2023-01-17T21:34:35.639Z,0.80
2023-01-17T21:38:46.000Z,0.80
2023-01-17T21:42:54.565Z,0.90
2023-01-17T21:47:04.239Z,1.00
2023-01-17T21:51:12.960Z,1.00
2023-01-17T21:55:39.766Z,0.90
2023-01-17T21:59:48.406Z,0.90
2023-01-17T22:04:02.720Z,0.90
2023-01-17T22:08:15.715Z,0.90
2023-01-17T22:12:24.624Z,0.90
2023-01-17T22:16:33.766Z,0.80
2023-01-17T22:20:42.986Z,0.80
2023-01-17T22:24:51.695Z,0.60
2023-01-17T22:29:04.308Z,0.40
2023-01-17T22:33:12.908Z,0.40
2023-01-17T22:37:21.468Z,0.40
2023-01-17T22:41:32.059Z,0.60
2023-01-17T22:45:40.719Z,0.60
2023-01-17T22:49:49.347Z,0.50
2023-01-17T22:53:59.994Z,0.40
2023-01-17T22:58:08.655Z,0.40
2023-01-17T23:02:18.440Z,0.40
2023-01-17T23:06:30.555Z,0.40
2023-01-17T23:11:16.425Z,0.50
2023-01-17T23:15:43.263Z,0.50
2023-01-17T23:19:55.733Z,0.50
2023-01-17T23:24:04.656Z,0.50
2023-01-17T23:28:16.909Z,0.40
2023-01-17T23:32:26.216Z,0.30
2023-01-17T23:36:34.819Z,0.20
2023-01-17T23:40:46.533Z,0.20
2023-01-17T23:44:55.101Z,0.30
2023-01-17T23:49:05.509Z,0.30
2023-01-17T23:53:26.022Z,0.30
2023-01-17T23:57:34.653Z,0.30
